Time;durP1;ratioP1;P1;durP2;ratioP2;P2;SDS_P1;SDS_P2;PMS_P1;PMS_P2;Temp;Humidity;BMP_temperature;BMP_pressure;BME280_temperature;BME280_humidity;BME280_pressure;Samples;Min_cycle;Max_cycle;Signal;HPM_P1;HPM_P2
2021/01/18 00:02:19;;;;;;;45.10;14.55;;;;;;;-20.97;77.68;100877.59;1602911;89;21265;-32
2021/01/18 00:04:48;;;;;;;34.60;13.65;;;;;;;-20.98;77.33;100873.75;1602927;89;20963;-31
2021/01/18 00:07:16;;;;;;;44.75;15.60;;;;;;;-21.02;77.20;100869.19;1602923;89;21010;-31
2021/01/18 00:09:45;;;;;;;38.00;15.68;;;;;;;-20.98;77.39;100874.98;1602914;89;21002;-31
2021/01/18 00:12:14;;;;;;;49.33;16.23;;;;;;;-20.98;77.38;100873.75;1602940;89;21046;-32
2021/01/18 00:14:42;;;;;;;48.05;15.90;;;;;;;-21.04;77.23;100871.83;1602971;89;21224;-32
2021/01/18 00:17:09;;;;;;;47.88;15.38;;;;;;;-21.08;77.18;100874.28;1602812;89;21058;-32
2021/01/18 00:19:38;;;;;;;48.15;15.40;;;;;;;-21.11;77.24;100874.80;1603011;88;20995;-31
2021/01/18 00:22:06;;;;;;;50.90;15.30;;;;;;;-21.13;77.20;100874.98;1602946;89;20943;-31
2021/01/18 00:24:33;;;;;;;54.13;15.70;;;;;;;-21.14;77.17;100876.05;1603015;88;21019;-31
2021/01/18 00:27:02;;;;;;;51.23;15.72;;;;;;;-21.15;77.07;100876.77;1602907;89;21405;-32
2021/01/18 00:29:31;;;;;;;54.18;16.27;;;;;;;-21.20;76.94;100879.92;1602923;89;21146;-30
2021/01/18 00:31:59;;;;;;;57.70;19.35;;;;;;;-21.27;76.85;100868.48;1603029;89;20991;-31
2021/01/18 00:34:27;;;;;;;64.40;19.25;;;;;;;-21.34;76.60;100865.15;1602945;88;21015;-31
2021/01/18 00:36:56;;;;;;;64.17;20.50;;;;;;;-21.49;76.14;100863.04;1602973;89;21006;-31
2021/01/18 00:39:23;;;;;;;56.08;18.25;;;;;;;-21.62;76.03;100861.64;1605449;88;21240;-31
2021/01/18 00:41:51;;;;;;;73.12;19.57;;;;;;;-21.74;76.07;100852.87;1607150;89;21043;-32
2021/01/18 00:44:19;;;;;;;66.82;19.90;;;;;;;-21.86;76.02;100848.30;1607182;89;21090;-31
2021/01/18 00:46:47;;;;;;;75.62;21.00;;;;;;;-21.98;75.94;100850.20;1607293;89;21168;-31
2021/01/18 00:49:16;;;;;;;70.40;20.35;;;;;;;-22.08;75.79;100851.08;1607152;89;21133;-31
2021/01/18 00:51:45;;;;;;;71.12;21.10;;;;;;;-22.21;75.60;100854.00;1607165;89;21416;-31
2021/01/18 00:54:13;;;;;;;76.35;22.20;;;;;;;-22.34;75.48;100848.89;1607134;88;21105;-30
2021/01/18 00:56:42;;;;;;;73.00;21.60;;;;;;;-22.41;75.68;100856.21;1607194;88;21030;-31
2021/01/18 00:59:12;;;;;;;80.42;20.68;;;;;;;-22.46;75.83;100858.51;1607155;88;21018;-31
2021/01/18 01:01:44;;;;;;;70.72;20.85;;;;;;;-22.50;75.85;100854.80;1607283;89;21014;-31
2021/01/18 01:04:13;;;;;;;74.97;19.80;;;;;;;-22.53;75.91;100858.48;1607172;89;21420;-30
2021/01/18 01:06:41;;;;;;;77.75;21.02;;;;;;;-22.54;76.11;100858.81;1607198;89;21010;-32
2021/01/18 01:09:08;;;;;;;73.60;20.65;;;;;;;-22.54;76.16;100851.82;1607105;89;20935;-32
2021/01/18 01:11:45;;;;;;;80.17;21.23;;;;;;;-22.56;76.14;100862.34;1607169;89;20939;-30
2021/01/18 01:14:14;;;;;;;67.08;19.37;;;;;;;-22.58;76.14;100863.73;1607260;89;20983;-31
2021/01/18 01:16:43;;;;;;;64.67;18.77;;;;;;;-22.60;76.17;100868.81;1607139;89;21455;-31
2021/01/18 01:19:11;;;;;;;57.53;17.77;;;;;;;-22.65;76.11;100863.67;1607117;89;21559;-32
2021/01/18 01:21:39;;;;;;;54.75;18.00;;;;;;;-22.70;76.15;100865.94;1607210;88;21002;-30
2021/01/18 01:24:08;;;;;;;68.62;18.27;;;;;;;-22.70;76.34;100861.03;1607203;89;21015;-31
2021/01/18 01:26:36;;;;;;;69.85;17.32;;;;;;;-22.70;76.34;100860.70;1607325;89;21049;-30
2021/01/18 01:29:03;;;;;;;56.60;19.27;;;;;;;-22.70;76.30;100862.25;1607292;89;21355;-32
2021/01/18 01:31:32;;;;;;;61.95;19.32;;;;;;;-22.73;76.33;100866.80;1607314;89;21015;-32
2021/01/18 01:34:00;;;;;;;61.42;19.60;;;;;;;-22.70;76.50;100872.07;1607292;89;21030;-30
2021/01/18 01:36:28;;;;;;;66.70;19.77;;;;;;;-22.66;76.66;100868.05;1607283;89;20999;-30
2021/01/18 01:38:56;;;;;;;60.30;19.32;;;;;;;-22.65;76.55;100869.81;1607063;89;21196;-32
2021/01/18 01:41:24;;;;;;;53.58;18.98;;;;;;;-22.67;76.44;100874.89;1607247;88;21448;-31
2021/01/18 01:43:52;;;;;;;56.95;17.77;;;;;;;-22.68;76.44;100869.45;1607285;89;20991;-32
2021/01/18 01:46:20;;;;;;;52.95;15.65;;;;;;;-22.70;76.52;100870.52;1607249;88;21090;-30
2021/01/18 01:48:48;;;;;;;52.15;13.93;;;;;;;-22.71;76.65;100871.21;1607283;88;21030;-32
2021/01/18 01:51:15;;;;;;;54.53;14.35;;;;;;;-22.69;76.99;100873.83;1607330;89;20931;-31
2021/01/18 01:53:43;;;;;;;45.52;13.20;;;;;;;-22.65;77.21;100866.49;1607270;89;21334;-32
2021/01/18 01:56:11;;;;;;;44.13;12.85;;;;;;;-22.62;77.06;100866.86;1584274;89;21043;-32
2021/01/18 01:58:39;;;;;;;47.62;12.43;;;;;;;-22.61;77.04;100867.02;1584183;89;21002;-31
2021/01/18 02:01:07;;;;;;;40.52;13.62;;;;;;;-22.54;77.34;100869.00;1607331;89;20959;-32
2021/01/18 02:03:42;;;;;;;38.78;13.68;;;;;;;-22.50;77.38;100867.08;1607267;89;20903;-31
2021/01/18 02:06:10;;;;;;;40.88;12.88;;;;;;;-22.42;77.51;100866.73;1607388;89;21236;-32
2021/01/18 02:08:38;;;;;;;27.93;8.20;;;;;;;-22.38;77.50;100873.76;1607257;88;20907;-31
2021/01/18 02:11:06;;;;;;;36.63;13.20;;;;;;;-22.31;77.88;100872.58;1607272;89;20900;-32
2021/01/18 02:13:52;;;;;;;44.80;13.10;;;;;;;-22.22;78.05;100870.34;1607388;89;21007;-32
2021/01/18 02:16:27;;;;;;;42.00;13.70;;;;;;;-22.13;78.03;100868.05;1607251;89;21106;-31
2021/01/18 02:19:27;;;;;;;38.25;13.05;;;;;;;-22.11;77.95;100871.57;1607323;89;21239;-32
2021/01/18 02:22:42;;;;;;;35.92;13.00;;;;;;;-22.10;77.82;100871.23;1604737;89;20950;-31
2021/01/18 02:25:38;;;;;;;46.33;13.80;;;;;;;-22.07;77.87;100871.59;1607039;89;21069;-30
2021/01/18 02:28:35;;;;;;;43.70;13.08;;;;;;;-22.02;77.96;100863.17;1607198;89;21469;-31
2021/01/18 02:31:14;;;;;;;42.30;12.90;;;;;;;-21.97;78.18;100874.08;1542996;89;21141;-32
2021/01/18 02:34:10;;;;;;;49.70;13.58;;;;;;;-21.92;78.09;100870.05;1607323;89;21385;-31
2021/01/18 02:37:07;;;;;;;45.00;14.50;;;;;;;-21.91;78.20;100875.48;1607312;89;20958;-31
2021/01/18 02:39:49;;;;;;;41.90;12.25;;;;;;;-21.93;78.02;100874.09;1606986;88;20987;-29
2021/01/18 02:42:29;;;;;;;45.20;12.35;;;;;;;-21.95;78.10;100874.27;1607169;89;21002;-30
2021/01/18 02:45:01;;;;;;;42.05;13.70;;;;;;;-21.95;78.09;100871.81;1607291;88;21054;-30
2021/01/18 02:47:30;;;;;;;50.80;14.58;;;;;;;-22.00;77.97;100866.35;1607193;88;21546;-31
2021/01/18 02:50:01;;;;;;;29.30;10.82;;;;;;;-22.02;78.04;100865.30;1607221;88;21033;-30
2021/01/18 02:52:29;;;;;;;49.05;14.38;;;;;;;-22.03;78.06;100863.87;1584689;89;21043;-32
2021/01/18 02:54:57;;;;;;;53.58;15.90;;;;;;;-22.02;78.02;100857.92;1607188;89;21011;-31
2021/01/18 02:57:26;;;;;;;54.15;14.35;;;;;;;-22.04;77.91;100849.50;1607289;89;21050;-30
2021/01/18 02:59:54;;;;;;;45.95;14.00;;;;;;;-22.08;77.82;100848.62;1607274;89;21467;-31
2021/01/18 03:02:50;;;;;;;47.58;15.30;;;;;;;-22.12;77.77;100850.16;1583816;89;21006;-31
2021/01/18 03:05:50;;;;;;;45.20;13.55;;;;;;;-22.14;77.86;100849.10;1607250;89;20942;-30
2021/01/18 03:08:32;;;;;;;51.98;14.75;;;;;;;-22.15;77.93;100846.12;1607115;88;20919;-31
2021/01/18 03:11:13;;;;;;;33.75;12.68;;;;;;;-22.16;77.84;100850.50;1606340;89;21542;-31
2021/01/18 03:14:05;;;;;;;45.25;14.13;;;;;;;-22.20;77.72;100863.13;1607278;88;21384;-31
2021/01/18 03:16:39;;;;;;;41.15;13.95;;;;;;;-22.22;77.74;100855.93;1607241;89;21058;-31
2021/01/18 03:19:07;;;;;;;55.43;16.45;;;;;;;-22.24;77.72;100859.79;1607170;88;20903;-32
2021/01/18 03:21:35;;;;;;;52.50;15.63;;;;;;;-22.29;77.63;100862.59;1584013;89;20931;-30
2021/01/18 03:24:06;;;;;;;40.63;13.22;;;;;;;-22.32;77.62;100859.77;1607271;89;21033;-30
2021/01/18 03:26:34;;;;;;;47.95;15.65;;;;;;;-22.32;77.66;100857.65;1607290;89;21274;-30
2021/01/18 03:29:02;;;;;;;41.90;13.88;;;;;;;-22.30;77.74;100853.46;1607141;88;20974;-30
2021/01/18 03:31:31;;;;;;;34.92;13.00;;;;;;;-22.31;77.66;100856.95;1607298;88;20963;-31
2021/01/18 03:33:59;;;;;;;37.73;13.50;;;;;;;-22.32;77.62;100861.00;1607188;89;21022;-31
2021/01/18 03:36:27;;;;;;;39.75;13.70;;;;;;;-22.30;77.73;100862.39;1607298;89;21069;-30
2021/01/18 03:38:55;;;;;;;49.85;13.50;;;;;;;-22.30;77.72;100855.92;1607095;89;21369;-30
2021/01/18 03:41:23;;;;;;;45.20;14.58;;;;;;;-22.27;77.74;100859.95;1603347;89;21086;-32
2021/01/18 03:43:51;;;;;;;50.03;15.30;;;;;;;-22.28;77.70;100857.31;1603005;88;21150;-32
2021/01/18 03:46:19;;;;;;;58.70;18.57;;;;;;;-22.24;77.79;100868.38;1602976;89;21053;-32
2021/01/18 03:48:47;;;;;;;53.58;15.35;;;;;;;-22.22;77.78;100866.98;1603026;89;21168;-30
2021/01/18 03:51:15;;;;;;;70.67;14.80;;;;;;;-22.21;77.74;100864.72;1602966;89;21283;-30
2021/01/18 03:53:43;;;;;;;56.02;16.12;;;;;;;-22.18;77.69;100866.31;1602923;89;20959;-32
2021/01/18 03:56:10;;;;;;;70.28;20.48;;;;;;;-22.20;77.61;100867.70;1602908;89;21094;-31
2021/01/18 03:58:38;;;;;;;50.67;16.93;;;;;;;-22.23;77.60;100875.91;1603004;89;20963;-30
2021/01/18 04:01:06;;;;;;;64.12;19.50;;;;;;;-22.19;77.75;100882.08;1602987;89;20901;-31
2021/01/18 04:03:35;;;;;;;55.90;18.10;;;;;;;-22.20;77.69;100894.73;1602956;89;22584;-29
2021/01/18 04:06:05;;;;;;;45.12;16.45;;;;;;;-22.19;77.70;100898.95;1602944;88;21030;-30
2021/01/18 04:08:32;;;;;;;63.85;17.98;;;;;;;-22.21;77.38;100905.59;1603002;88;21019;-30
2021/01/18 04:11:01;;;;;;;52.85;17.17;;;;;;;-22.27;77.16;100908.19;1602939;89;21292;-31
2021/01/18 04:13:32;;;;;;;59.55;18.37;;;;;;;-22.36;76.99;100901.83;1603059;88;21077;-32
2021/01/18 04:16:01;;;;;;;46.28;15.95;;;;;;;-22.46;76.79;100904.83;1603023;89;22852;-32
2021/01/18 04:18:29;;;;;;;48.20;16.27;;;;;;;-22.54;76.69;100909.15;1602902;89;20971;-32
2021/01/18 04:20:57;;;;;;;47.58;14.58;;;;;;;-22.67;76.39;100905.94;1602913;89;20999;-32
2021/01/18 04:23:25;;;;;;;47.20;15.88;;;;;;;-22.80;76.08;100914.25;1602958;89;20935;-31
2021/01/18 04:25:54;;;;;;;38.83;14.75;;;;;;;-22.93;75.93;100914.34;1603079;89;21007;-30
2021/01/18 04:28:21;;;;;;;53.45;16.75;;;;;;;-23.03;75.88;100910.26;1602900;89;21389;-31
2021/01/18 04:30:49;;;;;;;60.75;16.57;;;;;;;-23.10;75.92;100907.77;1602897;89;20955;-31
2021/01/18 04:33:18;;;;;;;56.05;19.02;;;;;;;-23.18;75.90;100908.91;1602934;89;20960;-32
2021/01/18 04:35:47;;;;;;;56.15;18.07;;;;;;;-23.21;76.02;100901.55;1602961;89;20959;-32
2021/01/18 04:38:15;;;;;;;56.65;17.92;;;;;;;-23.20;76.36;100899.27;1602932;89;21016;-32
2021/01/18 04:40:43;;;;;;;52.27;16.85;;;;;;;-23.18;76.40;100904.00;1604721;88;21227;-31
2021/01/18 04:43:13;;;;;;;50.88;15.35;;;;;;;-23.17;76.53;100898.41;1607095;88;21023;-32
2021/01/18 04:45:41;;;;;;;50.48;17.32;;;;;;;-23.09;76.75;100906.70;1607174;89;21074;-31
2021/01/18 04:48:11;;;;;;;47.03;14.40;;;;;;;-23.00;77.05;100908.17;1607171;89;20971;-29
2021/01/18 04:50:39;;;;;;;44.53;15.80;;;;;;;-22.96;76.97;100910.30;1564506;89;20935;-29
2021/01/18 04:53:15;;;;;;;52.93;17.48;;;;;;;-22.95;76.91;100912.42;1607125;89;21412;-31
2021/01/18 04:55:58;;;;;;;43.48;12.30;;;;;;;-22.96;76.86;100907.84;1607217;88;21534;-30
2021/01/18 04:58:29;;;;;;;65.65;18.35;;;;;;;-22.94;76.95;100912.59;1584095;89;21066;-31
2021/01/18 05:01:05;;;;;;;46.48;15.78;;;;;;;-22.86;77.24;100907.39;1607387;88;21501;-31
2021/01/18 05:03:36;;;;;;;57.60;19.80;;;;;;;-22.76;77.63;100909.02;1607358;89;21577;-30
2021/01/18 05:06:15;;;;;;;59.10;18.07;;;;;;;-22.65;77.66;100912.77;1607327;89;21448;-32
2021/01/18 05:09:10;;;;;;;71.77;21.50;;;;;;;-22.59;77.56;100914.75;1606482;89;21054;-31
2021/01/18 05:11:38;;;;;;;51.73;16.60;;;;;;;-22.54;77.63;100914.42;1607309;89;20916;-32
2021/01/18 05:14:07;;;;;;;58.75;18.98;;;;;;;-22.49;77.55;100917.08;1607345;89;21158;-31
2021/01/18 05:16:36;;;;;;;61.10;19.15;;;;;;;-22.48;77.50;100917.60;1607350;88;20900;-31
2021/01/18 05:19:12;;;;;;;57.98;18.12;;;;;;;-22.44;77.53;100913.55;1607325;89;21387;-30
2021/01/18 05:21:45;;;;;;;65.50;18.50;;;;;;;-22.40;77.57;100920.58;1607342;88;21156;-31
2021/01/18 05:24:13;;;;;;;62.48;18.92;;;;;;;-22.38;77.46;100924.47;1607289;89;21022;-29
2021/01/18 05:26:42;;;;;;;63.00;18.52;;;;;;;-22.38;77.44;100922.01;1607320;89;21022;-30
2021/01/18 05:29:10;;;;;;;61.10;18.20;;;;;;;-22.38;77.47;100921.64;1607275;89;21034;-31
2021/01/18 05:31:39;;;;;;;69.42;21.23;;;;;;;-22.36;77.41;100927.61;1607387;88;22305;-30
2021/01/18 05:34:15;;;;;;;65.75;20.08;;;;;;;-22.35;77.40;100934.65;1607332;89;21617;-30
2021/01/18 05:36:49;;;;;;;54.73;18.55;;;;;;;-22.32;77.53;100919.94;1607336;89;20995;-30
2021/01/18 05:39:31;;;;;;;58.10;17.98;;;;;;;-22.25;77.60;100922.75;1607231;88;20963;-31
2021/01/18 05:42:00;;;;;;;50.48;17.87;;;;;;;-22.20;77.69;100930.34;1607356;88;21117;-30
2021/01/18 05:44:35;;;;;;;60.38;19.57;;;;;;;-22.14;77.75;100930.17;1607269;88;21222;-32
2021/01/18 05:47:05;;;;;;;61.05;18.27;;;;;;;-22.10;77.74;100940.88;1607248;88;21105;-31
2021/01/18 05:49:49;;;;;;;64.90;19.73;;;;;;;-22.10;77.57;100942.11;1607331;89;20994;-31
2021/01/18 05:52:31;;;;;;;70.80;20.77;;;;;;;-22.13;77.39;100949.13;1607483;89;21066;-32
2021/01/18 05:55:25;;;;;;;71.35;22.30;;;;;;;-22.16;77.32;100950.89;1607394;89;21027;-31
2021/01/18 05:58:01;;;;;;;69.53;23.35;;;;;;;-22.15;77.40;100946.50;1584728;89;21370;-33
2021/01/18 06:00:37;;;;;;;71.60;23.05;;;;;;;-22.11;77.32;100950.19;1607262;89;21158;-32
2021/01/18 06:03:08;;;;;;;82.95;24.05;;;;;;;-22.05;77.35;100952.16;1607261;88;21188;-31
2021/01/18 06:05:38;;;;;;;66.33;20.70;;;;;;;-22.04;77.21;100960.06;1607296;88;21023;-31
2021/01/18 06:08:14;;;;;;;64.47;21.30;;;;;;;-22.05;77.17;100957.08;1607384;89;21442;-31
2021/01/18 06:10:43;;;;;;;73.97;21.90;;;;;;;-22.06;76.99;100959.00;1607348;88;22296;-31
2021/01/18 06:13:28;;;;;;;71.80;21.05;;;;;;;-22.04;76.97;100957.61;1607186;88;21078;-32
2021/01/18 06:16:11;;;;;;;66.45;18.15;;;;;;;-22.01;77.07;100956.73;1607245;88;20994;-31
2021/01/18 06:18:40;;;;;;;80.15;20.20;;;;;;;-21.92;77.22;100960.64;1607280;88;20942;-32
2021/01/18 06:21:11;;;;;;;88.45;22.95;;;;;;;-21.85;77.32;100957.30;1607283;88;20939;-33
2021/01/18 06:23:40;;;;;;;74.97;22.55;;;;;;;-21.75;77.43;100965.41;1607234;88;21401;-32
2021/01/18 06:26:09;;;;;;;73.90;21.62;;;;;;;-21.63;77.48;100972.09;1607237;89;20915;-32
2021/01/18 06:28:38;;;;;;;79.97;21.95;;;;;;;-21.54;77.46;100971.95;1607351;89;21622;-32
2021/01/18 06:31:11;;;;;;;79.22;23.12;;;;;;;-21.43;77.68;100974.08;1607180;88;20962;-31
2021/01/18 06:33:48;;;;;;;83.37;22.77;;;;;;;-21.31;77.63;100984.83;1607392;89;21070;-39
2021/01/18 06:36:22;;;;;;;75.42;23.62;;;;;;;-21.18;77.68;100977.30;1607231;89;21136;-30
2021/01/18 06:39:00;;;;;;;83.65;24.52;;;;;;;-21.05;77.85;100982.05;1607326;89;21046;-34
2021/01/18 06:41:31;;;;;;;90.90;26.12;;;;;;;-20.93;77.78;100985.05;1605625;89;21014;-32
2021/01/18 06:43:59;;;;;;;90.55;24.98;;;;;;;-20.83;77.85;100991.20;1602934;89;20991;-32
2021/01/18 06:46:34;;;;;;;84.03;25.95;;;;;;;-20.71;77.88;100997.84;1603139;89;21576;-31
2021/01/18 06:49:03;;;;;;;87.70;26.75;;;;;;;-20.61;77.92;101000.98;1603077;89;21503;-31
2021/01/18 06:51:31;;;;;;;89.97;25.17;;;;;;;-20.53;77.83;100999.06;1602940;89;21065;-31
2021/01/18 06:54:00;;;;;;;92.12;25.37;;;;;;;-20.44;77.82;100999.56;1603040;89;21007;-30
2021/01/18 06:56:39;;;;;;;87.67;26.73;;;;;;;-20.36;77.79;100996.37;1603026;89;21014;-31
2021/01/18 06:59:49;;;;;;;70.87;21.45;;;;;;;-20.28;77.81;101000.94;1602573;89;20995;-32
2021/01/18 07:02:26;;;;;;;65.72;21.75;;;;;;;-20.17;77.83;101000.92;1602936;89;21393;-31
2021/01/18 07:05:09;;;;;;;80.65;22.75;;;;;;;-20.07;77.82;100998.80;1602986;89;20951;-35
2021/01/18 07:07:38;;;;;;;79.05;23.87;;;;;;;-19.97;77.85;100996.98;1602988;88;20943;-30
2021/01/18 07:10:11;;;;;;;73.45;23.25;;;;;;;-19.88;77.85;100999.22;1603067;89;21481;-30
2021/01/18 07:12:39;;;;;;;70.85;22.48;;;;;;;-19.78;77.76;101006.06;1603026;89;20919;-30
2021/01/18 07:15:11;;;;;;;86.10;23.95;;;;;;;-19.69;77.79;101000.04;1602954;88;21223;-30
2021/01/18 07:17:55;;;;;;;74.95;22.77;;;;;;;-19.56;77.90;100997.33;1602990;88;20964;-32
2021/01/18 07:20:28;;;;;;;64.75;22.73;;;;;;;-19.44;77.92;100994.96;1602844;88;20999;-32
2021/01/18 07:23:28;;;;;;;47.62;16.20;;;;;;;-19.27;77.90;100986.06;1603374;88;21043;-31
2021/01/18 07:26:09;;;;;;;55.40;17.37;;;;;;;-19.16;77.82;100986.00;1602919;88;21074;-30
2021/01/18 07:28:37;;;;;;;44.45;15.98;;;;;;;-19.07;77.74;100982.05;1581838;89;22293;-29
2021/01/18 07:31:05;;;;;;;38.67;15.28;;;;;;;-18.98;77.52;100974.75;1603038;89;21094;-31
2021/01/18 07:33:33;;;;;;;53.48;18.25;;;;;;;-18.91;77.40;100974.66;1581533;89;20960;-30
2021/01/18 07:36:01;;;;;;;34.20;13.80;;;;;;;-18.88;77.21;100977.45;1602963;89;21164;-31
2021/01/18 07:38:34;;;;;;;45.88;16.65;;;;;;;-18.79;77.24;100979.69;1602987;89;21019;-34
2021/01/18 07:41:12;;;;;;;35.92;12.03;;;;;;;-18.73;76.88;100987.22;1562943;88;21392;-31
2021/01/18 07:43:45;;;;;;;59.75;18.40;;;;;;;-18.64;76.78;100991.55;1577839;91;21067;-31
2021/01/18 07:46:29;;;;;;;49.80;17.48;;;;;;;-18.63;76.79;100987.47;1578493;89;21003;-32
2021/01/18 07:49:15;;;;;;;46.55;15.98;;;;;;;-18.53;76.94;100990.23;1575145;90;21605;-32
2021/01/18 07:51:43;;;;;;;59.58;22.02;;;;;;;-18.40;76.89;100987.45;1567173;91;21008;-31
2021/01/18 07:54:33;;;;;;;52.90;18.90;;;;;;;-18.30;76.96;100983.47;1577819;91;21309;-32
2021/01/18 07:57:31;;;;;;;56.08;18.85;;;;;;;-18.15;77.02;100981.72;1577836;89;21125;-29
2021/01/18 08:03:12;;;;;;;45.10;14.70;;;;;;;-17.75;77.18;100989.54;1853601;77;22559;-29
2021/01/18 08:05:42;;;;;;;47.78;15.53;;;;;;;-17.69;76.51;100990.16;1825695;78;20930;-31
2021/01/18 08:08:14;;;;;;;41.02;15.25;;;;;;;-17.59;76.74;100995.70;1825588;78;21368;-32
2021/01/18 08:11:13;;;;;;;47.73;14.28;;;;;;;-17.50;76.67;100997.01;1789318;80;21941;-31
2021/01/18 08:13:59;;;;;;;46.50;15.30;;;;;;;-17.35;76.73;100991.50;1789309;80;21426;-30
2021/01/18 08:16:40;;;;;;;43.80;16.45;;;;;;;-17.21;76.40;100992.52;1789314;80;20992;-30
2021/01/18 08:19:17;;;;;;;39.08;14.47;;;;;;;-17.08;76.25;100990.05;1789162;80;20973;-32
2021/01/18 08:22:02;;;;;;;41.58;14.60;;;;;;;-16.95;76.33;100989.27;1789223;80;20961;-32
2021/01/18 08:24:35;;;;;;;43.15;15.18;;;;;;;-16.81;76.21;100989.78;1683760;80;73135;-30
2021/01/18 08:27:07;;;;;;;47.93;16.25;;;;;;;-16.68;76.05;100989.39;1663873;86;20991;-30
2021/01/18 08:29:52;;;;;;;43.42;15.32;;;;;;;-16.52;75.66;100991.78;1638340;87;21149;-32
2021/01/18 08:32:34;;;;;;;43.85;13.80;;;;;;;-16.44;75.58;100982.62;1664061;85;21017;-33
2021/01/18 08:35:22;;;;;;;42.55;14.75;;;;;;;-16.38;75.17;100977.91;1663897;86;22272;-31
2021/01/18 08:37:59;;;;;;;43.13;13.85;;;;;;;-16.33;74.83;100981.70;1638225;87;21128;-31
2021/01/18 08:40:44;;;;;;;34.23;12.95;;;;;;;-16.20;74.53;100980.39;1663805;86;21068;-30
2021/01/18 08:43:12;;;;;;;;;;;;;;;-16.08;74.37;100974.51;1666334;86;21450;-32
2021/01/18 08:45:52;;;;;;;45.00;13.08;;;;;;;-15.98;74.07;100977.16;1638285;87;20453;-32
2021/01/18 08:48:22;;;;;;;36.08;13.13;;;;;;;-16.00;73.59;100978.97;1663951;86;22254;-31
2021/01/18 08:50:54;;;;;;;39.98;12.88;;;;;;;-15.92;73.84;100978.98;1663442;86;20969;-30
2021/01/18 08:53:29;;;;;;;27.20;11.08;;;;;;;-15.78;73.65;100981.50;1663872;86;21052;-30
2021/01/18 08:56:05;;;;;;;48.00;14.80;;;;;;;-15.65;72.52;100977.72;1663859;85;21044;-31
2021/01/18 08:59:22;;;;;;;45.50;13.83;;;;;;;-15.49;72.59;100972.59;1776948;79;22266;-32
2021/01/18 09:01:59;;;;;;;39.45;14.05;;;;;;;-15.43;72.58;100972.27;1749834;82;20899;-29
2021/01/18 09:04:27;;;;;;;24.12;9.00;;;;;;;-15.33;72.13;100971.17;1749796;81;21395;-31
2021/01/18 09:06:55;;;;;;;13.30;5.83;;;;;;;-15.31;69.91;100970.56;1749821;81;20951;-31
2021/01/18 09:09:24;;;;;;;19.10;7.80;;;;;;;-15.37;68.60;100961.31;1749880;81;21009;-30
2021/01/18 09:11:51;;;;;;;23.87;9.43;;;;;;;-15.55;68.18;100961.71;1697049;82;20912;-35
2021/01/18 09:14:22;;;;;;;31.40;12.40;;;;;;;-15.57;68.56;100960.69;1749748;80;21085;-31
2021/01/18 09:16:50;;;;;;;32.10;12.60;;;;;;;-15.55;67.99;100950.89;1749874;81;22819;-32
2021/01/18 09:19:18;;;;;;;42.10;14.75;;;;;;;-15.46;68.39;100957.59;1749690;82;20939;-32
2021/01/18 09:21:47;;;;;;;34.65;12.33;;;;;;;-15.23;69.02;100954.28;1749731;82;20991;-32
2021/01/18 09:24:15;;;;;;;38.30;13.65;;;;;;;-14.95;68.84;100938.19;1669815;82;21003;-32
2021/01/18 09:26:43;;;;;;;36.88;13.10;;;;;;;-14.77;68.07;100929.03;1749909;81;20920;-31
2021/01/18 09:29:11;;;;;;;38.02;13.70;;;;;;;-14.75;66.55;100923.48;1720439;82;21198;-30
2021/01/18 09:31:39;;;;;;;26.97;9.95;;;;;;;-14.90;65.15;100932.91;1749689;82;20935;-30
2021/01/18 09:34:11;;;;;;;31.65;11.55;;;;;;;-14.92;65.65;100933.10;1720957;82;21011;-31
2021/01/18 09:36:43;;;;;;;36.37;14.13;;;;;;;-14.90;65.98;100926.69;1750038;82;20939;-30
2021/01/18 09:39:20;;;;;;;29.77;12.03;;;;;;;-14.75;65.49;100921.34;1749714;82;20900;-30
2021/01/18 09:41:51;;;;;;;32.50;10.78;;;;;;;-14.79;65.48;100911.48;1745940;82;20999;-31
2021/01/18 09:44:19;;;;;;;25.50;9.15;;;;;;;-14.71;64.08;100910.94;1749631;81;21053;-30
2021/01/18 09:46:47;;;;;;;33.80;12.25;;;;;;;-14.94;64.17;100916.32;1696784;82;20971;-30
2021/01/18 09:49:26;;;;;;;37.00;13.95;;;;;;;-14.88;63.33;100916.52;1696954;82;21018;-29
2021/01/18 09:51:55;;;;;;;21.62;7.55;;;;;;;-14.90;64.30;100922.08;1749761;82;21401;-30
2021/01/18 09:54:22;;;;;;;25.25;10.13;;;;;;;-14.76;63.29;100922.97;1749697;82;21196;-30
2021/01/18 09:56:52;;;;;;;27.75;10.93;;;;;;;-14.70;63.40;100916.80;1749716;82;20947;-35
2021/01/18 09:59:20;;;;;;;46.20;15.80;;;;;;;-14.54;63.17;100912.80;1738097;81;21062;-32
2021/01/18 10:01:49;;;;;;;40.65;14.68;;;;;;;-14.39;63.12;100912.04;1715870;82;20936;-33
2021/01/18 10:04:23;;;;;;;38.42;13.78;;;;;;;-14.09;63.24;100915.13;1692685;82;20961;-33
2021/01/18 10:06:51;;;;;;;25.62;11.30;;;;;;;-13.94;62.74;100920.56;1736533;82;22164;-33
2021/01/18 10:09:21;;;;;;;42.38;17.45;;;;;;;-13.82;61.72;100905.82;1715579;82;21007;-32
2021/01/18 10:11:49;;;;;;;32.05;12.82;;;;;;;-13.79;61.96;100901.45;1736042;82;20940;-34
2021/01/18 10:14:20;;;;;;;33.70;13.62;;;;;;;-13.64;61.53;100904.03;1735927;82;20992;-32
2021/01/18 10:17:07;;;;;;;50.85;17.32;;;;;;;-13.51;60.98;100904.71;1735965;82;20940;-32
2021/01/18 10:19:37;;;;;;;32.45;13.95;;;;;;;-13.62;59.89;100910.41;1735944;82;21372;-31
2021/01/18 10:22:19;;;;;;;45.73;15.88;;;;;;;-13.56;59.08;100904.70;1735879;82;21042;-32
2021/01/18 10:24:59;;;;;;;48.80;15.40;;;;;;;-13.60;59.67;100906.04;1735984;82;21519;-32
2021/01/18 10:27:28;;;;;;;48.17;15.43;;;;;;;-13.73;60.26;100905.75;1735940;82;20960;-30
2021/01/18 10:30:13;;;;;;;46.13;16.35;;;;;;;-13.77;60.36;100897.48;1735940;82;20996;-30
2021/01/18 10:32:44;;;;;;;40.12;15.72;;;;;;;-13.79;60.41;100893.98;1735879;81;21210;-33
2021/01/18 10:35:32;;;;;;;42.40;15.00;;;;;;;-13.66;60.49;100898.41;1735945;82;20940;-32
2021/01/18 10:38:19;;;;;;;40.48;14.63;;;;;;;-13.58;59.57;100896.22;1735748;82;20896;-32
2021/01/18 10:41:08;;;;;;;35.10;12.50;;;;;;;-13.80;59.37;100894.73;1735915;82;20964;-30
2021/01/18 10:43:38;;;;;;;37.00;15.08;;;;;;;-13.76;60.05;100897.63;1732887;82;21023;-32
2021/01/18 10:46:15;;;;;;;38.85;14.93;;;;;;;-13.57;59.86;100897.58;1715334;82;22718;-32
2021/01/18 10:48:43;;;;;;;40.33;15.68;;;;;;;-13.54;59.67;100894.84;1735958;82;20928;-33
2021/01/18 10:51:11;;;;;;;37.93;13.83;;;;;;;-13.74;59.02;100901.13;1715349;82;21446;-38
2021/01/18 10:53:39;;;;;;;39.95;15.70;;;;;;;-13.68;59.89;100898.65;1735983;82;20913;-35
2021/01/18 10:56:16;;;;;;;38.55;15.45;;;;;;;-13.62;59.08;100902.94;1733566;82;21075;-30
2021/01/18 10:58:44;;;;;;;42.43;14.78;;;;;;;-13.76;59.22;100893.03;1735934;82;21201;-31
2021/01/18 11:01:14;;;;;;;42.05;14.35;;;;;;;-13.77;59.86;100894.63;1735783;81;21035;-31
2021/01/18 11:03:43;;;;;;;35.70;14.38;;;;;;;-13.69;59.31;100897.79;1735925;82;20992;-32
2021/01/18 11:06:14;;;;;;;27.50;10.68;;;;;;;-13.81;58.95;100901.70;1735876;82;20964;-30
2021/01/18 11:08:42;;;;;;;27.50;10.58;;;;;;;-13.93;59.57;100903.64;1735954;82;20912;-32
2021/01/18 11:11:18;;;;;;;38.15;12.55;;;;;;;-13.91;59.61;100908.73;1735884;82;22574;-30
2021/01/18 11:14:05;;;;;;;29.77;11.20;;;;;;;-13.92;59.71;100899.52;1853547;77;22635;-30
2021/01/18 11:16:33;;;;;;;27.65;10.25;;;;;;;-13.87;59.15;100895.84;1825686;78;20911;-31
2021/01/18 11:19:03;;;;;;;39.58;14.07;;;;;;;-13.86;60.01;100892.61;1825572;78;22004;-33
2021/01/18 11:21:30;;;;;;;37.25;13.78;;;;;;;-13.81;59.92;100890.14;1825759;78;21543;-31
2021/01/18 11:23:58;;;;;;;33.58;13.78;;;;;;;-13.65;60.00;100903.89;1825610;78;21017;-31
2021/01/18 11:26:26;;;;;;;32.60;10.98;;;;;;;-13.47;59.96;100889.67;1825657;78;21280;-32
2021/01/18 11:28:54;;;;;;;36.23;13.90;;;;;;;-13.38;58.68;100883.31;1825515;78;20906;-31
2021/01/18 11:31:23;;;;;;;34.35;12.68;;;;;;;-13.51;58.90;100885.14;1825739;78;22204;-33
2021/01/18 11:33:51;;;;;;;36.70;14.25;;;;;;;-13.63;58.84;100897.45;1825571;78;20931;-31